Time;durP1;ratioP1;P1;durP2;ratioP2;P2;SDS_P1;SDS_P2;PMS_P1;PMS_P2;Temp;Humidity;BMP_temperature;BMP_pressure;BME280_temperature;BME280_humidity;BME280_pressure;Samples;Min_cycle;Max_cycle;Signal;HPM_P1;HPM_P2
2021/03/15 00:00:43;;;;;;;8.18;3.88;;;6.10;91.00;;;;;;5043030;28;20120;-90
2021/03/15 00:03:09;;;;;;;6.78;4.00;;;6.10;91.00;;;;;;5043854;28;20127;-90
2021/03/15 00:05:35;;;;;;;5.47;3.97;;;6.10;91.00;;;;;;4975251;28;20073;-90
2021/03/15 00:08:01;;;;;;;6.30;4.00;;;6.10;91.00;;;;;;4993754;28;20070;-91
2021/03/15 00:10:26;;;;;;;7.97;3.95;;;6.10;90.90;;;;;;4980665;28;20046;-90
2021/03/15 00:12:52;;;;;;;7.50;4.45;;;6.10;91.00;;;;;;4974950;28;20081;-90
2021/03/15 00:15:20;;;;;;;4.93;3.22;;;6.10;91.00;;;;;;4970889;28;20534;-90
2021/03/15 00:17:45;;;;;;;6.38;3.75;;;6.10;90.90;;;;;;4970039;28;20030;-90
2021/03/15 00:20:14;;;;;;;6.78;3.88;;;6.20;90.80;;;;;;4993282;28;20100;-91
2021/03/15 00:22:39;;;;;;;7.47;3.97;;;6.20;90.80;;;;;;4962036;28;20277;-90
2021/03/15 00:25:06;;;;;;;5.80;4.10;;;6.10;90.80;;;;;;4995590;28;20043;-91
2021/03/15 00:27:33;;;;;;;9.73;4.50;;;6.10;90.80;;;;;;4970553;28;20691;-90
2021/03/15 00:29:58;;;;;;;5.68;4.03;;;6.10;90.80;;;;;;4971420;28;20043;-90
2021/03/15 00:32:24;;;;;;;8.18;4.20;;;6.10;90.80;;;;;;4977188;28;20038;-91
2021/03/15 00:34:49;;;;;;;6.55;4.57;;;6.20;90.70;;;;;;4973931;28;20112;-90
2021/03/15 00:37:15;;;;;;;6.65;3.70;;;6.10;90.80;;;;;;4964631;28;20382;-91
2021/03/15 00:39:40;;;;;;;5.05;3.13;;;6.10;90.80;;;;;;4962001;28;20121;-91
2021/03/15 00:42:06;;;;;;;5.13;3.88;;;6.10;90.70;;;;;;5007216;28;20125;-90
2021/03/15 00:44:32;;;;;;;4.90;3.75;;;6.10;90.80;;;;;;4989407;28;20046;-90
2021/03/15 00:46:58;;;;;;;7.70;4.10;;;6.10;90.90;;;;;;4967384;28;20073;-91
2021/03/15 00:49:23;;;;;;;9.80;3.88;;;6.10;90.70;;;;;;4973727;28;20064;-91
2021/03/15 00:51:49;;;;;;;4.80;3.25;;;6.10;90.50;;;;;;4983277;28;20039;-91
2021/03/15 00:54:14;;;;;;;4.40;3.15;;;6.10;90.50;;;;;;4996740;28;20159;-91
2021/03/15 00:56:40;;;;;;;7.82;3.20;;;6.00;90.70;;;;;;4975310;28;20039;-90
2021/03/15 00:59:05;;;;;;;3.38;2.55;;;6.00;90.70;;;;;;4961919;28;20459;-91
2021/03/15 01:01:31;;;;;;;4.45;3.20;;;6.00;90.70;;;;;;4968835;28;20130;-91
2021/03/15 01:03:56;;;;;;;5.05;3.33;;;6.00;90.80;;;;;;4974962;28;20049;-90
2021/03/15 01:06:22;;;;;;;6.20;3.33;;;5.90;90.90;;;;;;4971625;28;20043;-91
2021/03/15 01:08:47;;;;;;;6.32;3.20;;;6.00;90.80;;;;;;4962136;28;20211;-90
2021/03/15 01:11:13;;;;;;;4.85;3.65;;;6.00;90.80;;;;;;4963242;28;20043;-90
2021/03/15 01:13:39;;;;;;;11.05;4.30;;;6.00;90.80;;;;;;4996409;28;20048;-90
2021/03/15 01:16:05;;;;;;;6.35;3.70;;;6.00;90.80;;;;;;4971091;28;20041;-90
2021/03/15 01:18:31;;;;;;;8.15;4.00;;;6.00;91.00;;;;;;4979136;28;20039;-90
2021/03/15 01:20:56;;;;;;;6.63;3.83;;;6.00;90.80;;;;;;4976825;28;20034;-90
2021/03/15 01:23:22;;;;;;;7.25;3.60;;;6.10;90.80;;;;;;4961266;28;20112;-88
2021/03/15 01:25:48;;;;;;;10.00;3.95;;;6.10;90.70;;;;;;4979810;28;20052;-89
2021/03/15 01:28:15;;;;;;;4.70;3.28;;;6.10;90.60;;;;;;4973748;28;20041;-91
2021/03/15 01:30:43;;;;;;;8.13;3.45;;;6.10;90.50;;;;;;5047658;28;20122;-91
2021/03/15 01:33:09;;;;;;;4.38;3.78;;;6.10;90.50;;;;;;4965727;28;20111;-91
2021/03/15 01:35:35;;;;;;;6.60;3.58;;;6.10;90.50;;;;;;4966866;28;20031;-89
2021/03/15 01:38:03;;;;;;;6.47;3.63;;;6.10;90.40;;;;;;4960083;28;20282;-91
2021/03/15 01:40:28;;;;;;;5.03;4.18;;;6.10;90.40;;;;;;4970635;28;20046;-90
2021/03/15 01:42:55;;;;;;;4.47;3.30;;;6.00;90.40;;;;;;4978998;28;20126;-90
2021/03/15 01:45:21;;;;;;;9.23;4.45;;;6.00;90.30;;;;;;4964704;28;20043;-90
2021/03/15 01:47:47;;;;;;;6.63;4.38;;;5.90;90.30;;;;;;4983527;28;20065;-90
2021/03/15 01:50:15;;;;;;;5.55;4.18;;;5.80;90.40;;;;;;4980452;28;20034;-92
2021/03/15 01:52:41;;;;;;;5.35;4.20;;;5.70;90.50;;;;;;5020720;28;20054;-91
2021/03/15 01:55:09;;;;;;;5.53;4.70;;;5.60;90.70;;;;;;4984061;28;20039;-90
2021/03/15 01:57:36;;;;;;;6.88;4.00;;;5.60;90.70;;;;;;4963612;28;20046;-91
2021/03/15 02:00:04;;;;;;;6.32;4.20;;;5.50;90.80;;;;;;4964016;28;20038;-90
2021/03/15 02:02:30;;;;;;;10.18;4.45;;;5.50;90.70;;;;;;4991268;28;20053;-91
2021/03/15 02:04:55;;;;;;;7.63;4.70;;;5.50;90.80;;;;;;5063380;28;20057;-91
2021/03/15 02:07:21;;;;;;;9.05;4.30;;;5.40;90.80;;;;;;5064478;28;20042;-90
2021/03/15 02:09:46;;;;;;;7.88;5.18;;;5.30;91.00;;;;;;4963947;28;20042;-92
2021/03/15 02:12:28;;;;;;;8.55;4.35;;;5.30;91.00;;;;;;5003947;28;20134;-91
2021/03/15 02:15:21;;;;;;;6.50;4.15;;;5.30;91.10;;;;;;5064149;28;20043;-92
2021/03/15 02:18:06;;;;;;;7.55;4.07;;;5.30;91.00;;;;;;4976571;28;20385;-91
2021/03/15 02:21:20;;;;;;;9.00;4.93;;;5.30;91.00;;;;;;4971295;28;20345;-90
2021/03/15 02:24:11;;;;;;;11.65;4.97;;;5.30;90.80;;;;;;4994776;28;20039;-90
2021/03/15 02:27:14;;;;;;;8.18;4.47;;;5.30;90.70;;;;;;4972976;28;20415;-91
2021/03/15 02:30:25;;;;;;;7.80;5.05;;;5.30;90.90;;;;;;4974145;28;20397;-90
2021/03/15 02:33:09;;;;;;;13.75;4.63;;;5.30;90.80;;;;;;4982975;28;20051;-91
2021/03/15 02:35:36;;;;;;;9.77;4.85;;;5.20;91.10;;;;;;5064280;28;20042;-91
2021/03/15 02:38:13;;;;;;;7.60;5.13;;;5.30;90.80;;;;;;4969298;28;20312;-91
2021/03/15 02:40:43;;;;;;;6.32;4.13;;;5.20;90.80;;;;;;4979592;28;20035;-91
2021/03/15 02:43:28;;;;;;;5.88;4.28;;;5.20;90.80;;;;;;4969004;28;20077;-91
2021/03/15 02:46:00;;;;;;;8.50;4.07;;;5.30;90.80;;;;;;4964079;28;20045;-91
2021/03/15 02:48:26;;;;;;;13.65;5.10;;;5.20;90.70;;;;;;4962583;28;20273;-91
2021/03/15 02:50:54;;;;;;;8.48;4.65;;;5.20;90.70;;;;;;4976354;28;20072;-91
2021/03/15 02:53:21;;;;;;;6.88;4.93;;;5.30;90.70;;;;;;4974019;28;20034;-91
2021/03/15 02:55:49;;;;;;;14.82;5.72;;;5.20;90.90;;;;;;4964736;28;20034;-91
2021/03/15 02:58:17;;;;;;;10.43;5.63;;;5.20;90.80;;;;;;5018186;28;20040;-91
2021/03/15 03:00:43;;;;;;;10.02;5.07;;;5.20;90.80;;;;;;5044064;28;20042;-91
2021/03/15 03:03:09;;;;;;;9.20;4.90;;;5.20;90.70;;;;;;4983072;28;20046;-91
2021/03/15 03:05:36;;;;;;;8.88;5.50;;;5.20;90.90;;;;;;4988990;28;20042;-91
2021/03/15 03:08:04;;;;;;;10.15;4.38;;;5.20;90.80;;;;;;4978782;28;20066;-92
2021/03/15 03:10:31;;;;;;;11.68;5.90;;;5.20;90.80;;;;;;4962712;28;20058;-93
2021/03/15 03:12:58;;;;;;;8.18;5.07;;;5.30;90.80;;;;;;4962169;28;20047;-90
2021/03/15 03:15:32;;;;;;;7.70;5.38;;;5.30;90.60;;;;;;4981633;28;20121;-91
2021/03/15 03:18:01;;;;;;;7.38;5.30;;;5.30;90.70;;;;;;4995327;28;20087;-91
2021/03/15 03:20:27;;;;;;;9.00;4.85;;;5.30;90.70;;;;;;4979627;28;20030;-91
2021/03/15 03:22:56;;;;;;;12.30;5.60;;;5.40;90.60;;;;;;4962793;28;20054;-91
2021/03/15 03:25:24;;;;;;;9.18;5.55;;;5.40;90.50;;;;;;4972768;28;20048;-91
2021/03/15 03:27:56;;;;;;;7.22;4.90;;;5.40;90.40;;;;;;4942754;28;20146;-91
2021/03/15 03:30:29;;;;;;;7.60;4.57;;;5.40;90.40;;;;;;4988810;28;20127;-90
2021/03/15 03:32:58;;;;;;;6.53;5.05;;;5.40;90.50;;;;;;4990462;28;20305;-91
2021/03/15 03:35:24;;;;;;;5.38;4.43;;;5.50;90.40;;;;;;4972119;28;20183;-91
2021/03/15 03:37:50;;;;;;;7.22;4.88;;;5.40;90.40;;;;;;4973641;28;20035;-91
2021/03/15 03:40:16;;;;;;;8.68;4.63;;;5.50;90.20;;;;;;4972113;28;20053;-91
2021/03/15 03:42:42;;;;;;;9.65;6.25;;;5.40;90.40;;;;;;4962250;28;20039;-91
2021/03/15 03:45:09;;;;;;;11.55;5.40;;;5.40;90.40;;;;;;4961567;28;20131;-91
2021/03/15 03:47:38;;;;;;;6.50;4.13;;;5.40;90.30;;;;;;4985539;28;20038;-90
2021/03/15 03:50:06;;;;;;;5.97;4.40;;;5.50;90.30;;;;;;4966095;28;20038;-91
2021/03/15 03:52:36;;;;;;;8.40;4.40;;;5.50;90.20;;;;;;4997718;28;20133;-91
2021/03/15 03:55:06;;;;;;;6.82;5.05;;;5.50;90.30;;;;;;4973746;28;20035;-90
2021/03/15 03:57:33;;;;;;;10.05;4.53;;;5.50;90.20;;;;;;4961567;28;20043;-91
2021/03/15 04:00:17;;;;;;;6.45;4.47;;;5.40;90.20;;;;;;4966357;28;20034;-91
2021/03/15 04:03:09;;;;;;;9.77;5.30;;;5.40;90.30;;;;;;5011303;28;20435;-91
2021/03/15 04:05:36;;;;;;;7.10;4.82;;;5.40;90.20;;;;;;5058929;28;20056;-91
2021/03/15 04:08:06;;;;;;;8.38;4.82;;;5.40;90.40;;;;;;4980997;28;20042;-91
2021/03/15 04:10:33;;;;;;;7.90;5.22;;;5.30;90.30;;;;;;5060065;28;20136;-91
2021/03/15 04:13:05;;;;;;;6.00;4.43;;;5.40;90.20;;;;;;4981591;28;20106;-91
2021/03/15 04:15:32;;;;;;;8.88;4.75;;;5.50;90.20;;;;;;4978942;28;20096;-91
2021/03/15 04:18:00;;;;;;;9.55;5.10;;;5.40;90.10;;;;;;4963841;28;20114;-92
2021/03/15 04:20:31;;;;;;;10.68;5.30;;;5.40;90.10;;;;;;4961924;28;20031;-91
2021/03/15 04:22:59;;;;;;;10.35;6.07;;;5.50;90.10;;;;;;4971096;28;20393;-91
2021/03/15 04:25:30;;;;;;;8.98;5.03;;;5.40;90.10;;;;;;4961578;28;20411;-91
2021/03/15 04:27:57;;;;;;;10.63;5.43;;;5.50;90.10;;;;;;4971699;28;20042;-91
2021/03/15 04:30:24;;;;;;;9.63;5.68;;;5.40;90.10;;;;;;4980867;28;20098;-92
2021/03/15 04:32:53;;;;;;;11.02;4.72;;;5.40;90.20;;;;;;4960931;28;20048;-91
2021/03/15 04:35:24;;;;;;;11.40;5.38;;;5.40;90.20;;;;;;4960480;28;20489;-91
2021/03/15 04:37:51;;;;;;;6.73;4.83;;;5.50;90.10;;;;;;4996670;28;20034;-91
2021/03/15 04:40:18;;;;;;;9.55;5.25;;;5.50;90.00;;;;;;4979784;28;20042;-92
2021/03/15 04:42:46;;;;;;;9.73;4.75;;;5.50;90.00;;;;;;4960698;28;20035;-91
2021/03/15 04:45:13;;;;;;;7.57;5.05;;;5.50;90.10;;;;;;4961181;28;20039;-91
2021/03/15 04:47:39;;;;;;;8.02;5.28;;;5.50;90.50;;;;;;4990490;28;20096;-91
2021/03/15 04:50:06;;;;;;;14.23;6.32;;;5.50;90.20;;;;;;4966075;28;20125;-91
2021/03/15 04:52:32;;;;;;;8.75;5.70;;;5.50;90.30;;;;;;4977788;28;20064;-91
2021/03/15 04:54:58;;;;;;;8.95;5.57;;;5.60;90.40;;;;;;5063306;28;20035;-92
2021/03/15 04:57:25;;;;;;;12.57;5.70;;;5.60;90.40;;;;;;4980018;28;20407;-90
2021/03/15 04:59:51;;;;;;;9.23;5.35;;;5.60;90.30;;;;;;4979733;28;20063;-88
2021/03/15 05:02:20;;;;;;;12.15;5.97;;;5.70;90.40;;;;;;4971271;28;20043;-90
2021/03/15 05:04:47;;;;;;;7.50;5.30;;;5.70;90.60;;;;;;4969031;28;20076;-90
2021/03/15 05:07:14;;;;;;;8.15;5.63;;;5.70;90.90;;;;;;4995816;28;20034;-90
2021/03/15 05:09:40;;;;;;;11.13;5.07;;;5.70;91.10;;;;;;4985319;28;20043;-90
2021/03/15 05:12:06;;;;;;;10.55;4.93;;;5.70;91.30;;;;;;4960579;28;20069;-89
2021/03/15 05:14:32;;;;;;;10.10;6.32;;;5.60;91.50;;;;;;4974412;28;20131;-90
2021/03/15 05:16:58;;;;;;;12.77;5.32;;;5.70;91.60;;;;;;4966362;28;20045;-89
2021/03/15 05:19:24;;;;;;;10.25;6.22;;;5.70;92.00;;;;;;4987328;28;20034;-90
2021/03/15 05:21:50;;;;;;;7.82;5.43;;;5.60;92.10;;;;;;4979622;28;20046;-90
2021/03/15 05:24:16;;;;;;;8.68;5.57;;;5.60;92.20;;;;;;4985452;28;20035;-90
2021/03/15 05:26:42;;;;;;;7.95;5.03;;;5.60;92.00;;;;;;5060656;28;20061;-89
2021/03/15 05:29:10;;;;;;;10.48;6.07;;;5.50;92.10;;;;;;4987484;28;20042;-89
2021/03/15 05:31:44;;;;;;;9.20;5.63;;;5.50;92.30;;;;;;4976779;28;20349;-89
2021/03/15 05:34:12;;;;;;;7.95;5.55;;;5.40;92.40;;;;;;4971657;28;20121;-90
2021/03/15 05:36:39;;;;;;;8.40;5.65;;;5.50;92.70;;;;;;4976529;28;20046;-88
2021/03/15 05:39:06;;;;;;;13.20;5.40;;;5.50;92.50;;;;;;5059653;28;20092;-87
2021/03/15 05:41:55;;;;;;;10.10;6.45;;;5.60;92.60;;;;;;4987825;28;20170;-89
2021/03/15 05:45:05;;;;;;;9.93;5.68;;;5.60;92.60;;;;;;4963270;28;20038;-87
2021/03/15 05:48:08;;;;;;;15.27;6.18;;;5.60;92.50;;;;;;5003000;28;20042;-89
2021/03/15 05:51:04;;;;;;;11.60;6.60;;;5.70;92.60;;;;;;4966031;28;20400;-89
2021/03/15 05:53:46;;;;;;;11.73;5.75;;;5.70;92.70;;;;;;5003168;28;20040;-90
2021/03/15 05:56:29;;;;;;;8.85;6.45;;;5.80;92.70;;;;;;4960259;28;20078;-90
2021/03/15 05:59:34;;;;;;;9.43;6.05;;;5.80;92.70;;;;;;4970337;28;20039;-89
2021/03/15 06:02:40;;;;;;;11.32;6.10;;;5.90;92.70;;;;;;4970090;28;20053;-90
2021/03/15 06:05:19;;;;;;;8.35;6.32;;;5.90;92.70;;;;;;5045210;28;20041;-90
2021/03/15 06:07:50;;;;;;;15.23;6.75;;;5.90;92.70;;;;;;5057657;28;20395;-90
2021/03/15 06:10:23;;;;;;;10.77;6.05;;;6.00;92.70;;;;;;5014740;28;20714;-90
2021/03/15 06:12:53;;;;;;;11.93;6.93;;;6.00;92.80;;;;;;5034669;28;20041;-90
2021/03/15 06:15:35;;;;;;;17.58;6.90;;;6.00;92.80;;;;;;5049207;28;20063;-90
2021/03/15 06:18:06;;;;;;;13.35;7.18;;;6.00;92.80;;;;;;5058276;28;20139;-91
2021/03/15 06:20:35;;;;;;;10.52;7.10;;;6.00;92.80;;;;;;5074208;28;20413;-91
2021/03/15 06:23:00;;;;;;;13.93;6.93;;;6.00;92.80;;;;;;5003381;28;20381;-90
2021/03/15 06:25:27;;;;;;;15.38;7.05;;;6.00;92.60;;;;;;5058915;28;20047;-90
2021/03/15 06:27:53;;;;;;;16.10;6.85;;;6.00;92.90;;;;;;5042320;28;20047;-90
2021/03/15 06:30:20;;;;;;;10.05;5.82;;;6.00;92.60;;;;;;5059069;28;20039;-90
2021/03/15 06:32:54;;;;;;;14.82;7.22;;;6.10;92.50;;;;;;5058741;28;20046;-89
2021/03/15 06:35:22;;;;;;;10.60;5.82;;;6.00;92.80;;;;;;5064497;28;20508;-90
2021/03/15 06:37:49;;;;;;;11.80;5.93;;;6.00;92.80;;;;;;5063110;28;20047;-91
2021/03/15 06:40:14;;;;;;;12.73;5.82;;;6.00;92.80;;;;;;5062910;28;20049;-91
2021/03/15 06:42:42;;;;;;;8.63;5.43;;;6.00;92.70;;;;;;5059014;28;20045;-91
2021/03/15 06:45:20;;;;;;;11.40;5.40;;;6.00;92.90;;;;;;5049940;28;20040;-90
2021/03/15 06:47:49;;;;;;;9.00;5.28;;;6.10;92.90;;;;;;5079471;28;20055;-90
2021/03/15 06:50:16;;;;;;;8.75;5.47;;;6.10;92.90;;;;;;5063299;28;20036;-91
2021/03/15 06:52:51;;;;;;;12.13;6.10;;;6.20;92.70;;;;;;5080305;28;20033;-90
2021/03/15 06:55:21;;;;;;;8.10;5.78;;;6.10;92.70;;;;;;5079593;28;20075;-90
2021/03/15 06:57:46;;;;;;;9.40;4.60;;;6.10;92.80;;;;;;5062502;28;20040;-91
2021/03/15 07:00:12;;;;;;;7.95;5.20;;;6.10;92.90;;;;;;5072093;28;20036;-90
2021/03/15 07:02:38;;;;;;;7.53;5.03;;;6.00;92.80;;;;;;5078898;28;20041;-90
2021/03/15 07:05:14;;;;;;;10.98;5.63;;;6.00;93.00;;;;;;4992892;28;20334;-90
2021/03/15 07:07:49;;;;;;;8.20;4.72;;;6.00;93.00;;;;;;4997061;28;20042;-90
2021/03/15 07:10:20;;;;;;;10.45;5.95;;;5.90;93.40;;;;;;4996541;28;20304;-91
2021/03/15 07:12:46;;;;;;;5.75;4.68;;;5.90;93.50;;;;;;4979892;28;20518;-90
2021/03/15 07:15:12;;;;;;;6.57;4.75;;;5.90;93.30;;;;;;4980248;28;20042;-91
2021/03/15 07:17:38;;;;;;;10.95;5.55;;;5.90;93.30;;;;;;4974147;28;20049;-90
2021/03/15 07:20:05;;;;;;;9.90;5.43;;;5.90;93.20;;;;;;4979836;28;20046;-90
2021/03/15 07:22:31;;;;;;;7.70;5.03;;;5.90;93.50;;;;;;4982680;28;20034;-89
2021/03/15 07:25:13;;;;;;;5.75;4.63;;;5.90;93.60;;;;;;4968434;28;20047;-91
2021/03/15 07:27:41;;;;;;;9.20;4.70;;;6.00;94.00;;;;;;4990859;28;20041;-88
2021/03/15 07:30:31;;;;;;;7.03;5.30;;;6.00;93.30;;;;;;4967519;28;20367;-90
2021/03/15 07:32:59;;;;;;;8.52;4.63;;;5.90;93.50;;;;;;4960562;28;20053;-87
2021/03/15 07:35:27;;;;;;;9.57;5.18;;;5.90;93.60;;;;;;4964744;28;20117;-90
2021/03/15 07:37:53;;;;;;;8.88;4.72;;;5.90;93.60;;;;;;4976409;28;20034;-89
2021/03/15 07:40:40;;;;;;;6.63;4.50;;;5.90;93.30;;;;;;4984688;28;20041;-88
2021/03/15 07:43:07;;;;;;;7.40;4.35;;;5.90;93.70;;;;;;5029457;28;20057;-89
2021/03/15 07:45:35;;;;;;;6.13;4.28;;;5.80;93.70;;;;;;4969116;28;20420;-89
2021/03/15 07:48:06;;;;;;;6.28;3.92;;;5.70;93.90;;;;;;4975847;28;20035;-89
2021/03/15 07:50:31;;;;;;;6.80;4.50;;;5.60;93.50;;;;;;4962963;28;20042;-87
2021/03/15 07:52:57;;;;;;;6.03;4.30;;;5.60;93.30;;;;;;5054960;28;20313;-89
2021/03/15 07:55:36;;;;;;;4.93;4.32;;;5.50;93.70;;;;;;4959634;28;20046;-88
2021/03/15 07:58:02;;;;;;;5.97;3.90;;;5.60;93.70;;;;;;4968435;28;20030;-89
2021/03/15 08:00:28;;;;;;;5.60;3.78;;;5.50;93.40;;;;;;4996657;28;20049;-88
2021/03/15 08:02:56;;;;;;;4.43;3.40;;;5.50;93.70;;;;;;4974078;28;20148;-89
2021/03/15 08:05:22;;;;;;;6.55;4.13;;;5.40;93.80;;;;;;4969046;28;20128;-90
2021/03/15 08:07:48;;;;;;;7.03;4.70;;;5.40;93.90;;;;;;4966389;28;20129;-90
2021/03/15 08:10:13;;;;;;;12.52;4.20;;;5.40;94.00;;;;;;4962129;28;20125;-90
2021/03/15 08:12:39;;;;;;;6.10;4.43;;;5.30;93.80;;;;;;4986276;28;20053;-90
2021/03/15 08:15:09;;;;;;;6.05;3.90;;;5.30;93.80;;;;;;4969218;28;20042;-90
2021/03/15 08:17:45;;;;;;;4.97;4.07;;;5.20;93.80;;;;;;4988318;28;20047;-90
2021/03/15 08:20:11;;;;;;;5.88;3.70;;;5.10;93.80;;;;;;4995936;28;20040;-90
2021/03/15 08:22:39;;;;;;;8.80;3.65;;;5.00;94.20;;;;;;5001306;28;20597;-89
2021/03/15 08:25:08;;;;;;;8.13;3.90;;;5.00;94.50;;;;;;4959503;28;20051;-90
2021/03/15 08:27:39;;;;;;;8.30;4.03;;;5.00;94.70;;;;;;4977270;28;20719;-88
2021/03/15 08:30:06;;;;;;;10.25;3.97;;;5.10;94.90;;;;;;4977467;28;20081;-89
2021/03/15 08:32:36;;;;;;;8.30;3.80;;;5.10;94.90;;;;;;4978577;28;20303;-89
2021/03/15 08:35:07;;;;;;;8.95;4.93;;;5.10;94.70;;;;;;4967638;28;20377;-90
2021/03/15 08:37:49;;;;;;;8.35;4.18;;;5.20;95.10;;;;;;4976318;28;20085;-88
2021/03/15 08:40:32;;;;;;;4.55;3.50;;;5.40;94.70;;;;;;4976523;28;20066;-86
2021/03/15 08:43:16;;;;;;;6.90;3.92;;;5.30;94.60;;;;;;4976438;28;20068;-89
2021/03/15 08:45:46;;;;;;;7.13;4.63;;;5.40;94.80;;;;;;4986044;28;20051;-89
2021/03/15 08:48:12;;;;;;;5.43;4.18;;;5.40;94.90;;;;;;4975717;28;20038;-89
2021/03/15 08:50:37;;;;;;;6.63;4.15;;;5.50;94.80;;;;;;4976098;28;20127;-88
2021/03/15 08:53:03;;;;;;;5.22;3.75;;;5.50;94.80;;;;;;5060277;28;20043;-89
2021/03/15 08:55:48;;;;;;;5.32;3.50;;;5.60;94.40;;;;;;5059634;28;20034;-90
2021/03/15 08:58:41;;;;;;;6.07;3.58;;;5.70;94.20;;;;;;4964878;28;20054;-90
2021/03/15 09:01:11;;;;;;;4.20;3.47;;;5.70;94.00;;;;;;5059568;28;20100;-90
2021/03/15 09:03:53;;;;;;;3.58;3.05;;;5.70;93.80;;;;;;4991983;28;20043;-89
2021/03/15 09:06:36;;;;;;;2.92;2.40;;;5.70;93.90;;;;;;4959201;28;20367;-90
2021/03/15 09:09:24;;;;;;;6.07;3.45;;;5.80;94.00;;;;;;5068726;28;20035;-89
2021/03/15 09:11:54;;;;;;;5.88;3.35;;;5.80;93.90;;;;;;5054280;28;20309;-90
2021/03/15 09:14:21;;;;;;;5.65;3.28;;;5.90;93.60;;;;;;4960797;28;20058;-91
2021/03/15 09:16:58;;;;;;;5.25;3.40;;;5.80;93.70;;;;;;4968606;28;20054;-89
2021/03/15 09:19:43;;;;;;;7.15;3.28;;;5.90;93.80;;;;;;5027630;28;20285;-91
2021/03/15 09:22:22;;;;;;;6.00;3.78;;;5.90;93.40;;;;;;5076291;28;20177;-90
2021/03/15 09:24:58;;;;;;;5.00;3.17;;;5.90;94.10;;;;;;4956698;28;20405;-90
2021/03/15 09:27:38;;;;;;;6.13;4.18;;;6.00;94.10;;;;;;4955590;29;20401;-90
2021/03/15 09:30:24;;;;;;;4.60;3.80;;;6.00;93.80;;;;;;4947899;28;20054;-88
2021/03/15 09:32:52;;;;;;;5.28;3.33;;;6.10;93.80;;;;;;5039392;28;20043;-90
2021/03/15 09:35:31;;;;;;;4.30;3.75;;;6.10;93.40;;;;;;4956038;28;20035;-90
2021/03/15 09:38:07;;;;;;;7.72;3.90;;;6.00;93.90;;;;;;4943037;28;20035;-90
2021/03/15 09:40:37;;;;;;;5.55;3.50;;;6.10;94.00;;;;;;4975383;28;20111;-89
2021/03/15 09:43:04;;;;;;;7.35;3.80;;;6.10;94.00;;;;;;4975544;28;20046;-90
2021/03/15 09:45:35;;;;;;;7.60;3.53;;;6.10;94.00;;;;;;4958833;28;20039;-90
2021/03/15 09:48:03;;;;;;;6.88;3.75;;;6.10;94.00;;;;;;4972925;28;20100;-89
2021/03/15 09:50:33;;;;;;;4.25;3.30;;;6.10;94.00;;;;;;4939871;28;20101;-90
2021/03/15 09:53:10;;;;;;;4.90;3.58;;;6.20;93.80;;;;;;4956029;28;20309;-88
2021/03/15 09:55:36;;;;;;;5.38;3.08;;;6.30;94.10;;;;;;4948466;28;20035;-88
2021/03/15 09:58:07;;;;;;;6.22;3.25;;;6.30;93.70;;;;;;4974218;28;20285;-90
2021/03/15 10:00:32;;;;;;;4.78;3.40;;;6.30;93.40;;;;;;4969220;28;20050;-89
2021/03/15 10:02:58;;;;;;;3.97;3.42;;;6.40;93.50;;;;;;5002297;28;20043;-89
2021/03/15 10:05:23;;;;;;;6.00;4.38;;;6.40;93.50;;;;;;4946646;28;20428;-88
2021/03/15 10:07:49;;;;;;;5.07;2.97;;;6.50;93.00;;;;;;5058328;28;20042;-88
2021/03/15 10:10:23;;;;;;;3.28;2.85;;;6.50;93.50;;;;;;4942482;29;20424;-90
2021/03/15 10:12:50;;;;;;;5.57;3.80;;;6.60;93.50;;;;;;4960738;28;20130;-90
2021/03/15 10:15:18;;;;;;;4.50;3.50;;;6.60;93.30;;;;;;4960729;28;20418;-89
2021/03/15 10:17:45;;;;;;;4.65;3.53;;;6.60;93.20;;;;;;4977571;28;20042;-91
2021/03/15 10:20:21;;;;;;;7.05;3.55;;;6.50;93.30;;;;;;4961064;28;20035;-90
2021/03/15 10:22:47;;;;;;;3.97;3.25;;;6.50;93.40;;;;;;4977892;28;20035;-88
2021/03/15 10:25:14;;;;;;;3.30;2.97;;;6.50;93.40;;;;;;4961182;28;20099;-90
2021/03/15 10:27:40;;;;;;;5.50;3.55;;;6.50;93.50;;;;;;4961159;28;20042;-88
2021/03/15 10:30:07;;;;;;;3.88;3.10;;;6.50;93.20;;;;;;4961528;28;20108;-89
2021/03/15 10:32:32;;;;;;;4.00;3.60;;;6.50;93.50;;;;;;4961824;28;20070;-90
2021/03/15 10:35:05;;;;;;;3.60;3.13;;;6.70;93.80;;;;;;5062832;28;20069;-88
2021/03/15 10:37:40;;;;;;;4.80;4.30;;;6.80;93.40;;;;;;4978708;28;20045;-89
2021/03/15 10:40:09;;;;;;;2.75;2.50;;;7.00;93.60;;;;;;4961891;28;20043;-89
2021/03/15 10:42:37;;;;;;;4.20;3.00;;;7.20;93.30;;;;;;4978652;28;20042;-90
2021/03/15 10:45:08;;;;;;;3.30;2.80;;;7.50;92.90;;;;;;4978562;28;20042;-90
2021/03/15 10:47:35;;;;;;;3.20;2.22;;;7.60;92.50;;;;;;4961717;28;20065;-91
2021/03/15 10:50:03;;;;;;;5.07;2.15;;;7.80;91.70;;;;;;4979340;28;20112;-92
2021/03/15 10:52:34;;;;;;;2.58;2.20;;;7.90;92.40;;;;;;4962505;28;20301;-92
2021/03/15 10:55:10;;;;;;;2.80;2.55;;;8.00;91.70;;;;;;4962557;28;20108;-92
2021/03/15 10:57:36;;;;;;;3.80;2.03;;;8.00;91.80;;;;;;4979106;28;20034;-91
2021/03/15 11:00:22;;;;;;;3.58;1.85;;;8.20;91.20;;;;;;4962510;28;20345;-91
2021/03/15 11:02:47;;;;;;;5.20;2.30;;;8.40;89.90;;;;;;4962123;28;20038;-89
2021/03/15 11:05:14;;;;;;;3.10;2.08;;;8.40;90.80;;;;;;4962009;28;20058;-91
2021/03/15 11:07:39;;;;;;;2.17;1.98;;;8.50;91.00;;;;;;4962038;28;20042;-91
2021/03/15 11:10:13;;;;;;;1.50;1.40;;;8.50;89.70;;;;;;5062764;28;20042;-91
2021/03/15 11:12:42;;;;;;;2.15;1.95;;;8.50;89.30;;;;;;4961618;28;20058;-90
2021/03/15 11:15:20;;;;;;;2.95;2.65;;;8.40;89.40;;;;;;4978417;28;20109;-90
2021/03/15 11:18:10;;;;;;;2.50;2.15;;;8.40;88.90;;;;;;4978640;28;20344;-91
2021/03/15 11:20:42;;;;;;;3.20;1.88;;;8.40;89.30;;;;;;4978039;28;20039;-91
2021/03/15 11:23:08;;;;;;;2.08;1.83;;;8.40;88.90;;;;;;4961828;28;20049;-91
2021/03/15 11:25:35;;;;;;;2.38;1.98;;;8.30;89.60;;;;;;4962339;28;20039;-92
2021/03/15 11:31:31;;;;;;;2.55;1.88;;;8.60;91.00;;;;;;5038349;28;20145;-94
2021/03/15 11:34:00;;;;;;;2.15;1.95;;;8.90;90.10;;;;;;4965484;28;20039;-95
2021/03/15 11:39:53;;;;;;;1.90;1.73;;;9.40;90.00;;;;;;4974403;28;20466;-94
2021/03/15 11:42:27;;;;;;;2.97;1.50;;;9.70;84.90;;;;;;4961923;28;20074;-94
2021/03/15 11:44:52;;;;;;;1.33;1.23;;;9.90;85.90;;;;;;4961845;28;20043;-95
2021/03/15 11:50:04;;;;;;;1.40;1.27;;;10.30;83.20;;;;;;4978330;28;20115;-94
2021/03/15 11:52:39;;;;;;;1.40;1.30;;;10.40;81.90;;;;;;5079529;28;20051;-95
2021/03/15 11:55:05;;;;;;;1.10;1.00;;;10.50;79.70;;;;;;5079369;28;20039;-94
2021/03/15 12:00:52;;;;;;;1.45;1.20;;;10.60;81.20;;;;;;4978783;28;20723;-93
2021/03/15 12:03:21;;;;;;;1.10;1.00;;;10.80;80.40;;;;;;5080790;28;20047;-93
2021/03/15 12:06:02;;;;;;;1.40;1.30;;;10.60;77.50;;;;;;4981249;28;20085;-95
2021/03/15 12:08:28;;;;;;;1.50;1.00;;;10.60;79.20;;;;;;4977158;28;20061;-93
2021/03/15 12:10:54;;;;;;;2.05;0.93;;;10.60;77.90;;;;;;4977431;28;20038;-91
2021/03/15 12:13:20;;;;;;;1.08;0.93;;;10.50;77.00;;;;;;4976932;28;20054;-93
2021/03/15 12:15:46;;;;;;;1.42;1.33;;;10.50;75.60;;;;;;4977605;28;20420;-90
2021/03/15 12:18:12;;;;;;;3.00;1.15;;;10.30;74.30;;;;;;4977006;28;20039;-91
2021/03/15 12:20:39;;;;;;;1.25;1.15;;;10.30;74.50;;;;;;4976833;28;20055;-93
2021/03/15 12:23:05;;;;;;;1.27;1.08;;;10.20;75.00;;;;;;4977412;28;20078;-93
2021/03/15 12:25:33;;;;;;;2.03;1.00;;;10.10;76.60;;;;;;4980539;28;20038;-93
2021/03/15 12:27:59;;;;;;;1.33;1.00;;;10.10;76.70;;;;;;4981246;28;20039;-93
2021/03/15 12:30:25;;;;;;;1.92;0.80;;;10.00;77.30;;;;;;4976542;28;20062;-92
2021/03/15 12:32:51;;;;;;;2.00;1.17;;;10.00;77.40;;;;;;4960355;28;20378;-92
2021/03/15 12:35:17;;;;;;;1.20;1.08;;;9.90;77.30;;;;;;4959942;28;20042;-93
2021/03/15 12:37:43;;;;;;;1.23;1.10;;;9.90;76.40;;;;;;4961061;28;20042;-93
2021/03/15 12:40:09;;;;;;;1.73;1.33;;;9.90;78.30;;;;;;4977322;28;20096;-93
2021/03/15 12:42:34;;;;;;;1.65;1.30;;;9.90;77.90;;;;;;4976132;28;20042;-92
2021/03/15 12:45:00;;;;;;;1.55;1.25;;;9.90;78.30;;;;;;4977318;28;20039;-92
2021/03/15 12:47:25;;;;;;;2.70;1.13;;;9.90;79.40;;;;;;4969708;28;20038;-92
2021/03/15 12:49:51;;;;;;;1.50;1.02;;;10.00;77.70;;;;;;4960784;28;20342;-92
2021/03/15 12:52:17;;;;;;;2.10;1.00;;;10.00;76.90;;;;;;4968175;28;20050;-91
2021/03/15 12:54:44;;;;;;;1.10;1.00;;;9.90;76.40;;;;;;4984673;28;20309;-93
2021/03/15 12:57:10;;;;;;;1.35;1.13;;;9.90;76.30;;;;;;4992575;28;20315;-92
2021/03/15 12:59:35;;;;;;;2.75;1.42;;;10.00;77.40;;;;;;4976582;28;20039;-91
2021/03/15 13:02:05;;;;;;;1.00;0.90;;;10.00;77.00;;;;;;4989335;28;20415;-92
2021/03/15 13:04:31;;;;;;;2.60;1.05;;;10.10;77.80;;;;;;4991518;28;20072;-92
2021/03/15 13:06:57;;;;;;;1.10;1.00;;;10.10;76.60;;;;;;5041413;28;20033;-92
2021/03/15 13:09:22;;;;;;;2.83;1.30;;;10.10;76.80;;;;;;5057954;28;20047;-93
2021/03/15 13:11:48;;;;;;;1.23;0.70;;;10.10;76.20;;;;;;5042115;28;20048;-93
2021/03/15 13:14:14;;;;;;;1.23;1.00;;;10.20;75.30;;;;;;5041179;28;20060;-93
2021/03/15 13:16:40;;;;;;;1.58;0.95;;;10.30;75.20;;;;;;5052893;28;20044;-93
2021/03/15 13:19:05;;;;;;;1.77;0.80;;;10.30;75.70;;;;;;5041408;28;20029;-92
2021/03/15 13:21:31;;;;;;;2.30;1.40;;;10.30;74.90;;;;;;5049137;28;20196;-93
2021/03/15 13:23:56;;;;;;;1.17;1.08;;;10.30;75.40;;;;;;5066419;28;20071;-93